sensor_id;sensor_type;location;lat;lon;timestamp;temperature;humidity
51500;DHT22;39101;53.478;6.158;2023-03-16T00:02:17;3.60;99.90
51500;DHT22;39101;53.478;6.158;2023-03-16T00:04:43;3.40;99.90
51500;DHT22;39101;53.478;6.158;2023-03-16T00:07:12;3.50;99.90
51500;DHT22;39101;53.478;6.158;2023-03-16T00:09:38;3.70;99.90
51500;DHT22;39101;53.478;6.158;2023-03-16T00:12:13;3.60;99.90
51500;DHT22;39101;53.478;6.158;2023-03-16T00:14:46;3.80;99.90
51500;DHT22;39101;53.478;6.158;2023-03-16T00:17:14;3.50;99.90
51500;DHT22;39101;53.478;6.158;2023-03-16T00:19:53;3.60;99.90
51500;DHT22;39101;53.478;6.158;2023-03-16T00:22:20;3.70;99.90
51500;DHT22;39101;53.478;6.158;2023-03-16T00:24:49;3.60;99.90
51500;DHT22;39101;53.478;6.158;2023-03-16T00:27:17;3.60;99.90
51500;DHT22;39101;53.478;6.158;2023-03-16T00:29:44;3.70;99.90
51500;DHT22;39101;53.478;6.158;2023-03-16T00:32:13;3.60;99.90
51500;DHT22;39101;53.478;6.158;2023-03-16T00:34:41;3.80;99.90
51500;DHT22;39101;53.478;6.158;2023-03-16T00:37:06;3.80;99.90
51500;DHT22;39101;53.478;6.158;2023-03-16T00:39:32;3.80;99.90
51500;DHT22;39101;53.478;6.158;2023-03-16T00:42:00;3.70;99.90
51500;DHT22;39101;53.478;6.158;2023-03-16T00:44:27;3.90;99.90
51500;DHT22;39101;53.478;6.158;2023-03-16T00:46:52;3.80;99.90
51500;DHT22;39101;53.478;6.158;2023-03-16T00:49:18;3.90;99.90
51500;DHT22;39101;53.478;6.158;2023-03-16T00:51:44;3.90;99.90
51500;DHT22;39101;53.478;6.158;2023-03-16T00:54:11;3.90;99.90
51500;DHT22;39101;53.478;6.158;2023-03-16T00:56:37;3.90;99.90
51500;DHT22;39101;53.478;6.158;2023-03-16T00:59:03;3.80;99.90
51500;DHT22;39101;53.478;6.158;2023-03-16T01:01:30;3.90;99.90
51500;DHT22;39101;53.478;6.158;2023-03-16T01:03:57;3.80;99.90
51500;DHT22;39101;53.478;6.158;2023-03-16T01:06:26;3.80;99.90
51500;DHT22;39101;53.478;6.158;2023-03-16T01:08:52;3.80;99.90
51500;DHT22;39101;53.478;6.158;2023-03-16T01:11:21;3.80;99.90
51500;DHT22;39101;53.478;6.158;2023-03-16T01:13:48;3.80;99.90
51500;DHT22;39101;53.478;6.158;2023-03-16T01:16:17;3.90;99.90
51500;DHT22;39101;53.478;6.158;2023-03-16T01:18:43;3.80;99.90
51500;DHT22;39101;53.478;6.158;2023-03-16T01:21:10;3.90;99.90
51500;DHT22;39101;53.478;6.158;2023-03-16T01:23:38;4.00;99.90
51500;DHT22;39101;53.478;6.158;2023-03-16T01:26:05;3.80;99.90
51500;DHT22;39101;53.478;6.158;2023-03-16T01:28:32;3.90;99.90
51500;DHT22;39101;53.478;6.158;2023-03-16T01:31:04;3.90;99.90
51500;DHT22;39101;53.478;6.158;2023-03-16T01:33:30;3.90;99.90
51500;DHT22;39101;53.478;6.158;2023-03-16T01:36:02;3.90;99.90
51500;DHT22;39101;53.478;6.158;2023-03-16T01:38:28;3.80;99.90
51500;DHT22;39101;53.478;6.158;2023-03-16T01:40:54;3.90;99.90
51500;DHT22;39101;53.478;6.158;2023-03-16T01:43:23;3.90;99.90
51500;DHT22;39101;53.478;6.158;2023-03-16T01:54:30;3.70;99.90
51500;DHT22;39101;53.478;6.158;2023-03-16T01:57:31;3.80;99.90
51500;DHT22;39101;53.478;6.158;2023-03-16T02:02:37;3.80;99.90
51500;DHT22;39101;53.478;6.158;2023-03-16T02:05:25;3.70;99.90
51500;DHT22;39101;53.478;6.158;2023-03-16T02:07:53;3.90;99.90
51500;DHT22;39101;53.478;6.158;2023-03-16T02:10:26;4.00;99.90
51500;DHT22;39101;53.478;6.158;2023-03-16T02:12:53;3.80;99.90
51500;DHT22;39101;53.478;6.158;2023-03-16T02:15:19;3.80;99.90
51500;DHT22;39101;53.478;6.158;2023-03-16T02:17:46;3.80;99.90
51500;DHT22;39101;53.478;6.158;2023-03-16T02:23:03;3.80;99.90
51500;DHT22;39101;53.478;6.158;2023-03-16T02:25:39;3.90;99.90
51500;DHT22;39101;53.478;6.158;2023-03-16T02:30:46;3.80;99.90
51500;DHT22;39101;53.478;6.158;2023-03-16T02:33:13;3.80;99.90
51500;DHT22;39101;53.478;6.158;2023-03-16T02:35:40;3.70;99.90
51500;DHT22;39101;53.478;6.158;2023-03-16T02:38:06;3.80;99.90
51500;DHT22;39101;53.478;6.158;2023-03-16T02:40:33;4.10;99.90
51500;DHT22;39101;53.478;6.158;2023-03-16T02:43:02;3.80;99.90
51500;DHT22;39101;53.478;6.158;2023-03-16T02:45:32;3.70;99.90
51500;DHT22;39101;53.478;6.158;2023-03-16T02:48:06;3.90;99.90
51500;DHT22;39101;53.478;6.158;2023-03-16T02:50:33;3.90;99.90
51500;DHT22;39101;53.478;6.158;2023-03-16T02:52:58;3.90;99.90
51500;DHT22;39101;53.478;6.158;2023-03-16T02:55:24;3.70;99.90
51500;DHT22;39101;53.478;6.158;2023-03-16T02:57:50;4.10;99.90
51500;DHT22;39101;53.478;6.158;2023-03-16T03:00:17;3.70;99.90
51500;DHT22;39101;53.478;6.158;2023-03-16T03:02:46;3.80;99.90
51500;DHT22;39101;53.478;6.158;2023-03-16T03:05:12;3.90;99.90
51500;DHT22;39101;53.478;6.158;2023-03-16T03:07:37;3.80;99.90
51500;DHT22;39101;53.478;6.158;2023-03-16T03:10:05;3.90;99.90
51500;DHT22;39101;53.478;6.158;2023-03-16T03:12:32;3.70;99.90
51500;DHT22;39101;53.478;6.158;2023-03-16T03:14:57;3.70;99.90
51500;DHT22;39101;53.478;6.158;2023-03-16T03:17:23;3.70;99.90
51500;DHT22;39101;53.478;6.158;2023-03-16T03:19:56;3.70;99.90
51500;DHT22;39101;53.478;6.158;2023-03-16T03:22:22;3.70;99.90
51500;DHT22;39101;53.478;6.158;2023-03-16T03:24:47;3.90;99.90
51500;DHT22;39101;53.478;6.158;2023-03-16T03:27:13;3.80;99.90
51500;DHT22;39101;53.478;6.158;2023-03-16T03:29:39;3.90;99.90
51500;DHT22;39101;53.478;6.158;2023-03-16T03:32:05;3.80;99.90
51500;DHT22;39101;53.478;6.158;2023-03-16T03:34:31;3.70;99.90
51500;DHT22;39101;53.478;6.158;2023-03-16T03:36:57;3.80;99.90
51500;DHT22;39101;53.478;6.158;2023-03-16T03:39:24;3.70;99.90
51500;DHT22;39101;53.478;6.158;2023-03-16T03:41:50;3.70;99.90
51500;DHT22;39101;53.478;6.158;2023-03-16T03:44:20;4.10;99.90
51500;DHT22;39101;53.478;6.158;2023-03-16T03:46:46;3.70;99.90
51500;DHT22;39101;53.478;6.158;2023-03-16T03:49:12;3.60;99.90
51500;DHT22;39101;53.478;6.158;2023-03-16T03:51:38;4.10;99.90
51500;DHT22;39101;53.478;6.158;2023-03-16T03:54:05;3.80;99.90
51500;DHT22;39101;53.478;6.158;2023-03-16T03:56:31;3.70;99.90
51500;DHT22;39101;53.478;6.158;2023-03-16T03:58:57;3.70;99.90
51500;DHT22;39101;53.478;6.158;2023-03-16T04:01:23;3.60;99.90
51500;DHT22;39101;53.478;6.158;2023-03-16T04:03:49;3.70;99.90
51500;DHT22;39101;53.478;6.158;2023-03-16T04:06:15;3.70;99.90
51500;DHT22;39101;53.478;6.158;2023-03-16T04:08:41;3.70;99.90
51500;DHT22;39101;53.478;6.158;2023-03-16T04:11:06;3.70;99.90
51500;DHT22;39101;53.478;6.158;2023-03-16T04:13:32;3.90;99.90
51500;DHT22;39101;53.478;6.158;2023-03-16T04:15:59;3.70;99.90
51500;DHT22;39101;53.478;6.158;2023-03-16T04:18:27;3.70;99.90
51500;DHT22;39101;53.478;6.158;2023-03-16T04:20:53;3.80;99.90
51500;DHT22;39101;53.478;6.158;2023-03-16T04:23:19;3.60;99.90
51500;DHT22;39101;53.478;6.158;2023-03-16T04:25:46;3.70;99.90
51500;DHT22;39101;53.478;6.158;2023-03-16T04:28:12;3.70;99.90
51500;DHT22;39101;53.478;6.158;2023-03-16T04:30:42;3.80;99.90
51500;DHT22;39101;53.478;6.158;2023-03-16T04:33:09;3.70;99.90
51500;DHT22;39101;53.478;6.158;2023-03-16T04:35:35;3.80;99.90
51500;DHT22;39101;53.478;6.158;2023-03-16T04:38:00;3.80;99.90
51500;DHT22;39101;53.478;6.158;2023-03-16T04:40:26;3.90;99.90
51500;DHT22;39101;53.478;6.158;2023-03-16T04:42:52;3.70;99.90
51500;DHT22;39101;53.478;6.158;2023-03-16T04:45:18;3.70;99.90
51500;DHT22;39101;53.478;6.158;2023-03-16T04:47:44;3.80;99.90
51500;DHT22;39101;53.478;6.158;2023-03-16T04:50:10;3.70;99.90
51500;DHT22;39101;53.478;6.158;2023-03-16T04:52:37;3.70;99.90
51500;DHT22;39101;53.478;6.158;2023-03-16T04:55:03;3.70;99.90
51500;DHT22;39101;53.478;6.158;2023-03-16T04:57:29;3.70;99.90
51500;DHT22;39101;53.478;6.158;2023-03-16T04:59:55;3.80;99.90
51500;DHT22;39101;53.478;6.158;2023-03-16T05:02:20;3.80;99.90
51500;DHT22;39101;53.478;6.158;2023-03-16T05:04:47;3.80;99.90
51500;DHT22;39101;53.478;6.158;2023-03-16T05:07:13;3.90;99.90
51500;DHT22;39101;53.478;6.158;2023-03-16T05:09:38;3.90;99.90
51500;DHT22;39101;53.478;6.158;2023-03-16T05:12:04;3.70;99.90
51500;DHT22;39101;53.478;6.158;2023-03-16T05:14:30;3.70;99.90
51500;DHT22;39101;53.478;6.158;2023-03-16T05:16:56;3.70;99.90
51500;DHT22;39101;53.478;6.158;2023-03-16T05:19:22;3.80;99.90
51500;DHT22;39101;53.478;6.158;2023-03-16T05:21:48;3.80;99.90
51500;DHT22;39101;53.478;6.158;2023-03-16T05:24:14;3.70;99.90
51500;DHT22;39101;53.478;6.158;2023-03-16T05:26:39;4.00;99.90
51500;DHT22;39101;53.478;6.158;2023-03-16T05:29:05;3.60;99.90
51500;DHT22;39101;53.478;6.158;2023-03-16T05:31:31;3.70;99.90
51500;DHT22;39101;53.478;6.158;2023-03-16T05:33:57;3.70;99.90
51500;DHT22;39101;53.478;6.158;2023-03-16T05:36:23;3.90;99.90
51500;DHT22;39101;53.478;6.158;2023-03-16T05:38:50;3.90;99.90
51500;DHT22;39101;53.478;6.158;2023-03-16T05:41:15;3.70;99.90
51500;DHT22;39101;53.478;6.158;2023-03-16T05:43:43;3.60;99.90
51500;DHT22;39101;53.478;6.158;2023-03-16T05:46:09;3.70;99.90
51500;DHT22;39101;53.478;6.158;2023-03-16T05:48:35;3.60;99.90
51500;DHT22;39101;53.478;6.158;2023-03-16T05:51:00;3.50;99.90
51500;DHT22;39101;53.478;6.158;2023-03-16T05:53:30;3.60;99.90
51500;DHT22;39101;53.478;6.158;2023-03-16T05:55:56;3.50;99.90
51500;DHT22;39101;53.478;6.158;2023-03-16T05:58:22;3.50;99.90
51500;DHT22;39101;53.478;6.158;2023-03-16T06:00:48;3.60;99.90
51500;DHT22;39101;53.478;6.158;2023-03-16T06:03:15;3.60;99.90
51500;DHT22;39101;53.478;6.158;2023-03-16T06:05:41;3.60;99.90
51500;DHT22;39101;53.478;6.158;2023-03-16T06:08:07;3.50;99.90
51500;DHT22;39101;53.478;6.158;2023-03-16T06:10:34;3.40;99.90
51500;DHT22;39101;53.478;6.158;2023-03-16T06:13:00;3.50;99.90
51500;DHT22;39101;53.478;6.158;2023-03-16T06:15:25;3.50;99.90
51500;DHT22;39101;53.478;6.158;2023-03-16T06:17:54;3.50;99.90
51500;DHT22;39101;53.478;6.158;2023-03-16T06:20:20;3.60;99.90
51500;DHT22;39101;53.478;6.158;2023-03-16T06:22:46;3.60;99.90
51500;DHT22;39101;53.478;6.158;2023-03-16T06:25:12;3.60;99.90
51500;DHT22;39101;53.478;6.158;2023-03-16T06:27:38;3.50;99.90
51500;DHT22;39101;53.478;6.158;2023-03-16T06:30:09;3.60;99.90
51500;DHT22;39101;53.478;6.158;2023-03-16T06:32:36;3.50;99.90
51500;DHT22;39101;53.478;6.158;2023-03-16T06:35:03;3.80;99.90
51500;DHT22;39101;53.478;6.158;2023-03-16T06:37:29;3.60;99.90
51500;DHT22;39101;53.478;6.158;2023-03-16T06:39:55;3.50;99.90
51500;DHT22;39101;53.478;6.158;2023-03-16T06:42:21;3.50;99.90
51500;DHT22;39101;53.478;6.158;2023-03-16T06:44:48;3.50;99.90
51500;DHT22;39101;53.478;6.158;2023-03-16T06:47:14;3.80;99.90
51500;DHT22;39101;53.478;6.158;2023-03-16T06:49:39;3.80;99.90
51500;DHT22;39101;53.478;6.158;2023-03-16T06:52:05;3.60;99.90
51500;DHT22;39101;53.478;6.158;2023-03-16T06:54:31;3.70;99.90
51500;DHT22;39101;53.478;6.158;2023-03-16T06:56:59;3.60;99.90
51500;DHT22;39101;53.478;6.158;2023-03-16T06:59:25;3.80;99.90
51500;DHT22;39101;53.478;6.158;2023-03-16T07:01:51;3.80;99.90
51500;DHT22;39101;53.478;6.158;2023-03-16T07:04:17;3.80;99.90
51500;DHT22;39101;53.478;6.158;2023-03-16T07:06:43;3.80;99.90
51500;DHT22;39101;53.478;6.158;2023-03-16T07:09:08;3.80;99.90
51500;DHT22;39101;53.478;6.158;2023-03-16T07:11:35;4.20;99.90
51500;DHT22;39101;53.478;6.158;2023-03-16T07:14:00;4.00;99.90
51500;DHT22;39101;53.478;6.158;2023-03-16T07:16:27;3.90;99.90
51500;DHT22;39101;53.478;6.158;2023-03-16T07:18:53;3.90;99.90
51500;DHT22;39101;53.478;6.158;2023-03-16T07:21:19;4.00;99.90
51500;DHT22;39101;53.478;6.158;2023-03-16T07:23:45;4.00;99.90
51500;DHT22;39101;53.478;6.158;2023-03-16T07:26:11;4.00;99.90
51500;DHT22;39101;53.478;6.158;2023-03-16T07:28:37;4.10;99.90
51500;DHT22;39101;53.478;6.158;2023-03-16T07:31:03;4.00;99.90
51500;DHT22;39101;53.478;6.158;2023-03-16T07:33:31;4.10;99.90
51500;DHT22;39101;53.478;6.158;2023-03-16T07:35:57;4.30;99.90
51500;DHT22;39101;53.478;6.158;2023-03-16T07:38:23;4.10;99.90
51500;DHT22;39101;53.478;6.158;2023-03-16T07:40:49;4.10;99.90
51500;DHT22;39101;53.478;6.158;2023-03-16T07:43:16;4.30;99.90
51500;DHT22;39101;53.478;6.158;2023-03-16T07:45:47;4.30;99.90
51500;DHT22;39101;53.478;6.158;2023-03-16T07:48:13;4.20;99.90
51500;DHT22;39101;53.478;6.158;2023-03-16T07:50:39;4.30;99.90
51500;DHT22;39101;53.478;6.158;2023-03-16T07:53:05;4.30;99.90
51500;DHT22;39101;53.478;6.158;2023-03-16T07:55:31;4.40;99.90
51500;DHT22;39101;53.478;6.158;2023-03-16T07:57:57;4.20;99.90
51500;DHT22;39101;53.478;6.158;2023-03-16T08:00:23;4.30;99.90
51500;DHT22;39101;53.478;6.158;2023-03-16T08:02:49;4.30;99.90
51500;DHT22;39101;53.478;6.158;2023-03-16T08:05:16;4.30;99.90
51500;DHT22;39101;53.478;6.158;2023-03-16T08:07:41;4.40;99.90
51500;DHT22;39101;53.478;6.158;2023-03-16T08:10:08;4.40;99.90
51500;DHT22;39101;53.478;6.158;2023-03-16T08:12:34;4.30;99.90
51500;DHT22;39101;53.478;6.158;2023-03-16T08:14:59;4.40;99.90
51500;DHT22;39101;53.478;6.158;2023-03-16T08:17:25;4.50;99.90
51500;DHT22;39101;53.478;6.158;2023-03-16T08:19:50;4.50;99.90
51500;DHT22;39101;53.478;6.158;2023-03-16T08:22:17;4.70;99.90
51500;DHT22;39101;53.478;6.158;2023-03-16T08:24:43;4.70;99.90
51500;DHT22;39101;53.478;6.158;2023-03-16T08:27:09;4.70;99.90
51500;DHT22;39101;53.478;6.158;2023-03-16T08:29:35;4.50;99.90
51500;DHT22;39101;53.478;6.158;2023-03-16T08:32:02;4.60;99.90
51500;DHT22;39101;53.478;6.158;2023-03-16T08:34:28;4.70;99.90
51500;DHT22;39101;53.478;6.158;2023-03-16T08:36:54;4.80;99.90
51500;DHT22;39101;53.478;6.158;2023-03-16T08:39:20;4.70;99.90
51500;DHT22;39101;53.478;6.158;2023-03-16T08:41:46;4.70;99.90
51500;DHT22;39101;53.478;6.158;2023-03-16T08:44:12;4.70;99.90
51500;DHT22;39101;53.478;6.158;2023-03-16T08:46:38;4.90;99.90
51500;DHT22;39101;53.478;6.158;2023-03-16T08:49:05;4.70;99.90
51500;DHT22;39101;53.478;6.158;2023-03-16T08:51:32;4.80;99.90
51500;DHT22;39101;53.478;6.158;2023-03-16T08:53:58;4.80;99.90
51500;DHT22;39101;53.478;6.158;2023-03-16T08:56:24;4.90;99.90
51500;DHT22;39101;53.478;6.158;2023-03-16T08:58:50;4.70;99.90
51500;DHT22;39101;53.478;6.158;2023-03-16T09:01:16;4.90;99.90
51500;DHT22;39101;53.478;6.158;2023-03-16T09:03:43;5.00;99.90
51500;DHT22;39101;53.478;6.158;2023-03-16T09:06:12;4.80;99.90
51500;DHT22;39101;53.478;6.158;2023-03-16T09:08:39;5.00;99.90
51500;DHT22;39101;53.478;6.158;2023-03-16T09:11:08;4.90;99.90
51500;DHT22;39101;53.478;6.158;2023-03-16T09:13:35;4.90;99.90
51500;DHT22;39101;53.478;6.158;2023-03-16T09:16:01;5.00;99.90
51500;DHT22;39101;53.478;6.158;2023-03-16T09:18:27;5.00;99.90
51500;DHT22;39101;53.478;6.158;2023-03-16T09:20:58;5.10;99.90
51500;DHT22;39101;53.478;6.158;2023-03-16T09:23:24;5.10;99.90
51500;DHT22;39101;53.478;6.158;2023-03-16T09:25:50;5.00;99.90
51500;DHT22;39101;53.478;6.158;2023-03-16T09:28:18;5.00;99.90
51500;DHT22;39101;53.478;6.158;2023-03-16T09:30:44;5.00;99.90
51500;DHT22;39101;53.478;6.158;2023-03-16T09:33:09;5.10;99.90
51500;DHT22;39101;53.478;6.158;2023-03-16T09:35:35;5.00;99.90
51500;DHT22;39101;53.478;6.158;2023-03-16T09:38:02;4.90;99.90
51500;DHT22;39101;53.478;6.158;2023-03-16T09:40:29;5.00;99.90
51500;DHT22;39101;53.478;6.158;2023-03-16T09:48:26;5.20;99.90
51500;DHT22;39101;53.478;6.158;2023-03-16T09:50:55;5.10;99.90
51500;DHT22;39101;53.478;6.158;2023-03-16T09:53:30;5.10;99.90
51500;DHT22;39101;53.478;6.158;2023-03-16T09:58:25;5.30;99.90
51500;DHT22;39101;53.478;6.158;2023-03-16T10:06:11;5.50;99.90
51500;DHT22;39101;53.478;6.158;2023-03-16T10:09:16;5.60;99.90
51500;DHT22;39101;53.478;6.158;2023-03-16T10:11:47;5.50;99.90
51500;DHT22;39101;53.478;6.158;2023-03-16T10:14:28;5.50;99.90
51500;DHT22;39101;53.478;6.158;2023-03-16T10:19:50;5.60;99.90
51500;DHT22;39101;53.478;6.158;2023-03-16T10:22:23;5.60;99.90
51500;DHT22;39101;53.478;6.158;2023-03-16T10:25:01;5.60;99.90
51500;DHT22;39101;53.478;6.158;2023-03-16T10:27:31;5.80;99.90
51500;DHT22;39101;53.478;6.158;2023-03-16T10:29:58;5.80;99.90
51500;DHT22;39101;53.478;6.158;2023-03-16T10:32:30;5.60;99.90
51500;DHT22;39101;53.478;6.158;2023-03-16T10:35:01;5.60;99.90
51500;DHT22;39101;53.478;6.158;2023-03-16T10:37:29;5.70;99.90
51500;DHT22;39101;53.478;6.158;2023-03-16T10:39:55;5.80;99.90
51500;DHT22;39101;53.478;6.158;2023-03-16T10:42:23;5.80;99.90
51500;DHT22;39101;53.478;6.158;2023-03-16T10:44:56;5.80;99.90
51500;DHT22;39101;53.478;6.158;2023-03-16T10:47:23;5.70;99.90
51500;DHT22;39101;53.478;6.158;2023-03-16T10:49:52;5.60;99.90
51500;DHT22;39101;53.478;6.158;2023-03-16T10:54:57;5.70;99.90
51500;DHT22;39101;53.478;6.158;2023-03-16T10:57:26;5.60;99.90
51500;DHT22;39101;53.478;6.158;2023-03-16T10:59:53;5.80;99.90
51500;DHT22;39101;53.478;6.158;2023-03-16T11:02:23;5.70;99.90
51500;DHT22;39101;53.478;6.158;2023-03-16T11:04:52;5.60;99.90
51500;DHT22;39101;53.478;6.158;2023-03-16T11:07:20;5.60;99.90
51500;DHT22;39101;53.478;6.158;2023-03-16T11:09:53;5.50;99.90
51500;DHT22;39101;53.478;6.158;2023-03-16T11:14:48;5.70;99.90
51500;DHT22;39101;53.478;6.158;2023-03-16T11:19:58;5.80;99.90
51500;DHT22;39101;53.478;6.158;2023-03-16T11:22:26;5.80;99.90
51500;DHT22;39101;53.478;6.158;2023-03-16T11:27:24;5.80;99.90
51500;DHT22;39101;53.478;6.158;2023-03-16T11:32:32;5.80;99.90
51500;DHT22;39101;53.478;6.158;2023-03-16T11:35:00;6.00;99.90
51500;DHT22;39101;53.478;6.158;2023-03-16T11:48:52;6.20;99.90
51500;DHT22;39101;53.478;6.158;2023-03-16T11:56:57;6.20;99.90
51500;DHT22;39101;53.478;6.158;2023-03-16T12:02:19;6.20;99.90
51500;DHT22;39101;53.478;6.158;2023-03-16T12:13:23;6.80;99.90
51500;DHT22;39101;53.478;6.158;2023-03-16T12:16:17;6.90;99.90
51500;DHT22;39101;53.478;6.158;2023-03-16T12:18:53;7.00;99.90
51500;DHT22;39101;53.478;6.158;2023-03-16T12:24:21;7.00;99.90
51500;DHT22;39101;53.478;6.158;2023-03-16T12:26:48;7.10;99.90
51500;DHT22;39101;53.478;6.158;2023-03-16T12:29:36;7.30;99.90
51500;DHT22;39101;53.478;6.158;2023-03-16T12:32:42;7.20;99.90
51500;DHT22;39101;53.478;6.158;2023-03-16T12:35:37;7.30;99.90
51500;DHT22;39101;53.478;6.158;2023-03-16T12:46:18;7.80;99.90
51500;DHT22;39101;53.478;6.158;2023-03-16T12:48:51;7.90;99.90
51500;DHT22;39101;53.478;6.158;2023-03-16T12:51:17;7.90;99.90
51500;DHT22;39101;53.478;6.158;2023-03-16T12:53:44;7.90;99.90
51500;DHT22;39101;53.478;6.158;2023-03-16T12:56:17;7.90;99.90
51500;DHT22;39101;53.478;6.158;2023-03-16T12:58:46;8.00;99.90
51500;DHT22;39101;53.478;6.158;2023-03-16T13:01:17;8.10;99.90
51500;DHT22;39101;53.478;6.158;2023-03-16T13:03:47;8.10;99.90
51500;DHT22;39101;53.478;6.158;2023-03-16T13:06:22;7.90;99.90
51500;DHT22;39101;53.478;6.158;2023-03-16T13:08:56;7.90;99.90
51500;DHT22;39101;53.478;6.158;2023-03-16T13:11:24;8.00;99.90
51500;DHT22;39101;53.478;6.158;2023-03-16T13:14:04;7.90;99.90
51500;DHT22;39101;53.478;6.158;2023-03-16T13:16:35;7.90;99.90
51500;DHT22;39101;53.478;6.158;2023-03-16T13:19:36;8.00;99.90
51500;DHT22;39101;53.478;6.158;2023-03-16T13:22:28;8.10;99.90
51500;DHT22;39101;53.478;6.158;2023-03-16T13:25:21;8.10;99.90
51500;DHT22;39101;53.478;6.158;2023-03-16T13:27:51;8.20;99.90
51500;DHT22;39101;53.478;6.158;2023-03-16T13:30:29;8.20;99.90
51500;DHT22;39101;53.478;6.158;2023-03-16T13:33:05;8.20;99.90
51500;DHT22;39101;53.478;6.158;2023-03-16T13:35:36;8.00;99.90
51500;DHT22;39101;53.478;6.158;2023-03-16T13:38:05;8.10;99.90
51500;DHT22;39101;53.478;6.158;2023-03-16T13:40:48;8.20;99.90
51500;DHT22;39101;53.478;6.158;2023-03-16T13:43:16;8.20;99.90
51500;DHT22;39101;53.478;6.158;2023-03-16T13:45:42;8.30;99.90
51500;DHT22;39101;53.478;6.158;2023-03-16T13:48:16;8.20;99.90
51500;DHT22;39101;53.478;6.158;2023-03-16T13:50:42;8.10;99.90
51500;DHT22;39101;53.478;6.158;2023-03-16T13:53:20;8.10;99.90
51500;DHT22;39101;53.478;6.158;2023-03-16T13:55:46;8.10;99.90
51500;DHT22;39101;53.478;6.158;2023-03-16T14:00:54;8.30;99.90
51500;DHT22;39101;53.478;6.158;2023-03-16T14:03:21;8.20;99.90
51500;DHT22;39101;53.478;6.158;2023-03-16T14:05:48;8.20;99.90
51500;DHT22;39101;53.478;6.158;2023-03-16T14:08:19;8.20;99.90
51500;DHT22;39101;53.478;6.158;2023-03-16T14:10:46;8.30;99.90
51500;DHT22;39101;53.478;6.158;2023-03-16T14:18:47;8.20;99.90
51500;DHT22;39101;53.478;6.158;2023-03-16T14:21:22;8.10;99.90
51500;DHT22;39101;53.478;6.158;2023-03-16T14:24:22;8.20;99.90
51500;DHT22;39101;53.478;6.158;2023-03-16T14:29:42;8.20;99.90
51500;DHT22;39101;53.478;6.158;2023-03-16T14:32:24;8.20;99.90
51500;DHT22;39101;53.478;6.158;2023-03-16T14:34:59;8.40;99.90
51500;DHT22;39101;53.478;6.158;2023-03-16T14:37:34;8.20;99.90
51500;DHT22;39101;53.478;6.158;2023-03-16T14:40:01;8.40;99.90
51500;DHT22;39101;53.478;6.158;2023-03-16T14:42:31;8.30;99.90
51500;DHT22;39101;53.478;6.158;2023-03-16T14:44:59;8.30;99.90
51500;DHT22;39101;53.478;6.158;2023-03-16T14:47:27;8.20;99.90
51500;DHT22;39101;53.478;6.158;2023-03-16T14:49:56;8.30;99.90
51500;DHT22;39101;53.478;6.158;2023-03-16T14:52:29;8.30;99.90
51500;DHT22;39101;53.478;6.158;2023-03-16T14:54:59;8.20;99.90
51500;DHT22;39101;53.478;6.158;2023-03-16T14:57:26;8.40;99.90
51500;DHT22;39101;53.478;6.158;2023-03-16T14:59:53;8.50;99.90
51500;DHT22;39101;53.478;6.158;2023-03-16T15:04:45;8.40;99.90
51500;DHT22;39101;53.478;6.158;2023-03-16T15:07:33;8.50;99.90
51500;DHT22;39101;53.478;6.158;2023-03-16T15:12:41;8.40;99.90
51500;DHT22;39101;53.478;6.158;2023-03-16T15:15:22;8.40;99.90
51500;DHT22;39101;53.478;6.158;2023-03-16T15:17:50;8.40;99.90
51500;DHT22;39101;53.478;6.158;2023-03-16T15:20:22;8.40;99.90
51500;DHT22;39101;53.478;6.158;2023-03-16T15:22:51;8.40;99.90
51500;DHT22;39101;53.478;6.158;2023-03-16T15:25:37;8.40;99.90
51500;DHT22;39101;53.478;6.158;2023-03-16T15:28:15;8.30;99.90
51500;DHT22;39101;53.478;6.158;2023-03-16T15:30:43;8.30;99.90
51500;DHT22;39101;53.478;6.158;2023-03-16T15:33:10;8.30;99.90
51500;DHT22;39101;53.478;6.158;2023-03-16T15:35:37;8.50;99.90
51500;DHT22;39101;53.478;6.158;2023-03-16T15:38:24;8.40;99.90
51500;DHT22;39101;53.478;6.158;2023-03-16T15:40:51;8.40;99.90
51500;DHT22;39101;53.478;6.158;2023-03-16T15:43:20;8.40;99.90
51500;DHT22;39101;53.478;6.158;2023-03-16T15:45:47;8.40;99.90
51500;DHT22;39101;53.478;6.158;2023-03-16T15:48:14;8.40;99.90
51500;DHT22;39101;53.478;6.158;2023-03-16T15:50:43;8.40;99.90
51500;DHT22;39101;53.478;6.158;2023-03-16T15:53:38;8.50;99.90
51500;DHT22;39101;53.478;6.158;2023-03-16T15:56:06;8.50;99.90
51500;DHT22;39101;53.478;6.158;2023-03-16T15:58:33;8.40;99.90
51500;DHT22;39101;53.478;6.158;2023-03-16T16:01:02;8.50;99.90
51500;DHT22;39101;53.478;6.158;2023-03-16T16:03:28;8.50;99.90
51500;DHT22;39101;53.478;6.158;2023-03-16T16:05:54;8.50;99.90
51500;DHT22;39101;53.478;6.158;2023-03-16T16:08:21;8.50;99.90
51500;DHT22;39101;53.478;6.158;2023-03-16T16:10:48;8.50;99.90
51500;DHT22;39101;53.478;6.158;2023-03-16T16:13:28;8.60;99.90
51500;DHT22;39101;53.478;6.158;2023-03-16T16:15:57;8.80;99.90
51500;DHT22;39101;53.478;6.158;2023-03-16T16:18:31;9.10;99.90
51500;DHT22;39101;53.478;6.158;2023-03-16T16:21:00;9.10;99.90
51500;DHT22;39101;53.478;6.158;2023-03-16T16:23:28;9.10;99.90
51500;DHT22;39101;53.478;6.158;2023-03-16T16:25:56;9.20;99.90
51500;DHT22;39101;53.478;6.158;2023-03-16T16:28:28;9.10;99.90
51500;DHT22;39101;53.478;6.158;2023-03-16T16:30:54;9.30;99.90
51500;DHT22;39101;53.478;6.158;2023-03-16T16:33:31;9.70;99.90
51500;DHT22;39101;53.478;6.158;2023-03-16T16:36:04;10.30;99.90
51500;DHT22;39101;53.478;6.158;2023-03-16T16:38:30;10.60;99.90
51500;DHT22;39101;53.478;6.158;2023-03-16T16:40:59;10.80;99.90
51500;DHT22;39101;53.478;6.158;2023-03-16T16:43:38;10.70;99.90
51500;DHT22;39101;53.478;6.158;2023-03-16T16:46:17;10.50;99.90
51500;DHT22;39101;53.478;6.158;2023-03-16T16:48:52;10.30;99.90
51500;DHT22;39101;53.478;6.158;2023-03-16T16:51:20;10.20;99.90
51500;DHT22;39101;53.478;6.158;2023-03-16T16:53:48;9.90;99.90
51500;DHT22;39101;53.478;6.158;2023-03-16T16:56:15;9.80;99.90
51500;DHT22;39101;53.478;6.158;2023-03-16T16:58:43;9.60;99.90
51500;DHT22;39101;53.478;6.158;2023-03-16T17:01:18;9.60;99.90
51500;DHT22;39101;53.478;6.158;2023-03-16T17:04:02;9.30;99.90
51500;DHT22;39101;53.478;6.158;2023-03-16T17:06:28;9.20;99.90
51500;DHT22;39101;53.478;6.158;2023-03-16T17:08:54;9.20;99.90
51500;DHT22;39101;53.478;6.158;2023-03-16T17:11:26;9.00;99.90
51500;DHT22;39101;53.478;6.158;2023-03-16T17:13:55;8.90;99.90
51500;DHT22;39101;53.478;6.158;2023-03-16T17:16:23;8.80;99.90
51500;DHT22;39101;53.478;6.158;2023-03-16T17:18:51;8.70;99.90
51500;DHT22;39101;53.478;6.158;2023-03-16T17:21:20;8.60;99.90
51500;DHT22;39101;53.478;6.158;2023-03-16T17:23:48;8.50;99.90
51500;DHT22;39101;53.478;6.158;2023-03-16T17:26:24;8.30;99.90
51500;DHT22;39101;53.478;6.158;2023-03-16T17:28:54;8.30;99.90
51500;DHT22;39101;53.478;6.158;2023-03-16T17:31:23;8.30;99.90
51500;DHT22;39101;53.478;6.158;2023-03-16T17:33:50;8.20;99.90
51500;DHT22;39101;53.478;6.158;2023-03-16T17:36:18;8.00;99.90
51500;DHT22;39101;53.478;6.158;2023-03-16T17:38:44;8.10;99.90